Time;durP1;ratioP1;P1;durP2;ratioP2;P2;SDS_P1;SDS_P2;PMS_P1;PMS_P2;Temp;Humidity;BMP_temperature;BMP_pressure;BME280_temperature;BME280_humidity;BME280_pressure;Samples;Min_cycle;Max_cycle;Signal;HPM_P1;HPM_P2
2023/07/11 00:01:19;;;;;;;0.30;0.30;;;16.40;99.90;;;;;;5050208;28;20044;-78
2023/07/11 00:03:45;;;;;;;0.38;0.38;;;16.60;99.90;;;;;;5047363;28;20059;-79
2023/07/11 00:06:16;;;;;;;1.20;1.10;;;16.40;99.90;;;;;;5049523;28;20512;-78
2023/07/11 00:08:42;;;;;;;0.30;0.30;;;16.40;99.90;;;;;;5062389;28;20083;-78
2023/07/11 00:11:09;;;;;;;0.30;0.30;;;16.40;99.90;;;;;;5032995;28;20073;-78
2023/07/11 00:13:36;;;;;;;0.35;0.35;;;16.50;99.90;;;;;;5049056;28;20049;-78
2023/07/11 00:16:05;;;;;;;0.40;0.40;;;16.40;99.90;;;;;;5045948;28;20080;-78
2023/07/11 00:18:31;;;;;;;1.00;1.00;;;16.50;99.90;;;;;;5050414;28;20041;-78
2023/07/11 00:20:57;;;;;;;0.30;0.30;;;16.40;99.90;;;;;;5047523;28;20140;-78
2023/07/11 00:23:24;;;;;;;0.40;0.40;;;16.40;99.90;;;;;;5060652;28;20067;-78
2023/07/11 00:25:49;;;;;;;0.32;0.32;;;16.60;99.90;;;;;;5052336;28;20049;-78
2023/07/11 00:28:15;;;;;;;0.40;0.40;;;16.50;99.90;;;;;;5057451;28;20098;-78
2023/07/11 00:30:41;;;;;;;0.38;0.38;;;16.70;99.90;;;;;;5044957;28;20095;-78
2023/07/11 00:33:11;;;;;;;0.52;0.52;;;16.60;99.90;;;;;;5057965;28;20053;-78
2023/07/11 00:35:38;;;;;;;0.50;0.50;;;16.50;99.90;;;;;;5047637;28;20052;-78
2023/07/11 00:38:04;;;;;;;0.40;0.40;;;16.40;99.90;;;;;;5061793;28;20045;-78
2023/07/11 00:40:29;;;;;;;0.30;0.30;;;16.40;99.90;;;;;;5047508;28;20036;-78
2023/07/11 00:42:58;;;;;;;0.38;0.38;;;16.50;99.90;;;;;;5051110;28;20388;-78
2023/07/11 00:45:49;;;;;;;0.40;0.40;;;16.40;99.90;;;;;;5026648;28;20051;-78
2023/07/11 00:48:16;;;;;;;0.70;0.70;;;16.40;99.90;;;;;;5035469;28;20045;-78
2023/07/11 00:50:42;;;;;;;0.40;0.40;;;16.40;99.90;;;;;;5059774;28;20112;-78
2023/07/11 00:53:09;;;;;;;0.30;0.30;;;16.40;99.90;;;;;;5053689;28;20049;-78
2023/07/11 00:55:35;;;;;;;0.40;0.40;;;16.40;99.90;;;;;;5054605;28;20049;-78
2023/07/11 00:58:00;;;;;;;0.40;0.40;;;16.40;99.90;;;;;;5054334;28;20075;-78
2023/07/11 01:00:27;;;;;;;0.20;0.20;;;16.30;99.90;;;;;;5049446;28;20128;-78
2023/07/11 01:02:52;;;;;;;0.30;0.30;;;16.20;99.90;;;;;;5057977;28;20044;-78
2023/07/11 01:05:18;;;;;;;0.30;0.30;;;16.30;99.90;;;;;;5045653;28;20581;-78
2023/07/11 01:07:44;;;;;;;0.40;0.40;;;16.30;99.90;;;;;;5056115;28;20095;-78
2023/07/11 01:10:10;;;;;;;0.40;0.40;;;16.30;99.90;;;;;;5044904;28;20045;-78
2023/07/11 01:12:36;;;;;;;0.40;0.40;;;16.30;99.90;;;;;;5049434;28;20045;-78
2023/07/11 01:15:03;;;;;;;0.40;0.40;;;16.30;99.90;;;;;;5039827;28;20269;-78
2023/07/11 01:17:30;;;;;;;0.30;0.30;;;16.30;99.90;;;;;;5042196;28;20446;-78
2023/07/11 01:19:58;;;;;;;0.40;0.40;;;16.20;99.90;;;;;;5040728;28;20106;-78
2023/07/11 01:22:26;;;;;;;0.50;0.50;;;16.40;99.90;;;;;;5037440;28;20062;-78
2023/07/11 01:24:52;;;;;;;0.45;0.45;;;16.20;99.90;;;;;;5045282;28;20516;-78
2023/07/11 01:27:19;;;;;;;0.40;0.40;;;16.30;99.90;;;;;;5041754;28;20036;-78
2023/07/11 01:29:49;;;;;;;0.30;0.30;;;16.40;99.90;;;;;;5051561;28;20053;-79
2023/07/11 01:32:16;;;;;;;0.40;0.40;;;16.20;99.90;;;;;;5047024;28;20486;-78
2023/07/11 01:34:42;;;;;;;0.30;0.30;;;16.20;99.90;;;;;;5051821;28;20045;-78
2023/07/11 01:37:08;;;;;;;0.35;0.35;;;16.50;99.90;;;;;;5041803;28;20075;-78
2023/07/11 01:39:34;;;;;;;0.30;0.30;;;16.40;99.90;;;;;;5056956;28;20116;-79
2023/07/11 01:42:00;;;;;;;0.40;0.40;;;16.30;99.90;;;;;;5040448;28;20033;-78
2023/07/11 01:44:25;;;;;;;0.30;0.30;;;16.30;99.90;;;;;;5044818;28;20041;-78
2023/07/11 01:46:51;;;;;;;0.40;0.40;;;16.30;99.90;;;;;;5045845;28;20044;-78
2023/07/11 01:49:17;;;;;;;0.30;0.30;;;16.30;99.90;;;;;;5041635;28;21817;-78
2023/07/11 01:51:46;;;;;;;0.40;0.40;;;16.30;99.90;;;;;;5049127;28;20056;-78
2023/07/11 01:54:13;;;;;;;0.28;0.28;;;16.30;99.90;;;;;;5055157;28;20056;-78
2023/07/11 01:56:38;;;;;;;0.32;0.32;;;16.20;99.90;;;;;;5046505;28;20042;-78
2023/07/11 01:59:04;;;;;;;0.40;0.40;;;16.20;99.90;;;;;;5049243;28;20049;-78
2023/07/11 02:01:30;;;;;;;0.28;0.28;;;16.10;99.90;;;;;;5056672;28;20044;-78
2023/07/11 02:03:55;;;;;;;0.20;0.20;;;16.20;99.90;;;;;;5041606;28;20045;-78
2023/07/11 02:06:21;;;;;;;0.40;0.40;;;16.30;99.90;;;;;;5054937;28;20047;-78
2023/07/11 02:08:47;;;;;;;0.45;0.43;;;16.10;99.90;;;;;;5048457;28;20455;-79
2023/07/11 02:11:12;;;;;;;0.40;0.40;;;16.20;99.90;;;;;;5056594;28;20501;-78
2023/07/11 02:13:40;;;;;;;0.30;0.30;;;16.00;99.90;;;;;;5046735;28;20398;-78
2023/07/11 02:16:06;;;;;;;0.30;0.30;;;16.10;99.90;;;;;;5049167;28;20048;-78
2023/07/11 02:18:32;;;;;;;0.40;0.40;;;16.00;99.90;;;;;;5052002;28;20036;-78
2023/07/11 02:20:58;;;;;;;0.40;0.40;;;15.90;99.90;;;;;;5043250;28;20477;-78
2023/07/11 02:23:24;;;;;;;0.20;0.20;;;15.90;99.90;;;;;;5045953;28;20108;-78
2023/07/11 02:25:53;;;;;;;0.60;0.60;;;15.90;99.90;;;;;;5040908;28;20060;-78
2023/07/11 02:28:20;;;;;;;0.47;0.47;;;16.00;99.90;;;;;;5036491;28;20052;-78
2023/07/11 02:30:45;;;;;;;0.38;0.38;;;15.90;99.90;;;;;;5044959;28;20049;-78
2023/07/11 02:33:11;;;;;;;0.32;0.32;;;15.80;99.90;;;;;;5040887;28;20060;-78
2023/07/11 02:35:37;;;;;;;0.30;0.30;;;15.70;99.90;;;;;;5058666;28;20146;-78
2023/07/11 02:38:02;;;;;;;0.75;0.47;;;15.90;99.90;;;;;;5053130;28;20041;-78
2023/07/11 02:40:28;;;;;;;0.30;0.30;;;15.80;99.90;;;;;;5043690;28;20049;-78
2023/07/11 02:42:54;;;;;;;0.35;0.35;;;15.80;99.90;;;;;;5046781;28;20037;-78
2023/07/11 02:45:20;;;;;;;0.30;0.30;;;15.70;99.90;;;;;;5040631;28;20041;-78
2023/07/11 02:47:45;;;;;;;0.20;0.20;;;15.70;99.90;;;;;;5041180;28;20059;-79
2023/07/11 02:50:11;;;;;;;0.30;0.30;;;15.80;99.90;;;;;;5053348;28;20169;-78
2023/07/11 02:52:38;;;;;;;0.50;0.50;;;15.70;99.90;;;;;;5056429;28;20090;-78
2023/07/11 02:55:04;;;;;;;0.40;0.40;;;15.80;99.90;;;;;;5048321;28;20052;-76
2023/07/11 02:57:30;;;;;;;0.50;0.50;;;15.60;99.90;;;;;;5045812;28;20041;-82
2023/07/11 02:59:56;;;;;;;0.40;0.40;;;15.70;99.90;;;;;;5019179;28;20043;-81
2023/07/11 03:02:21;;;;;;;0.40;0.40;;;15.70;99.90;;;;;;5030118;28;20433;-81
2023/07/11 03:04:47;;;;;;;1.02;0.95;;;16.00;99.90;;;;;;5033492;28;20107;-80
2023/07/11 03:07:13;;;;;;;0.50;0.50;;;16.00;99.90;;;;;;5052975;28;20036;-80
2023/07/11 03:09:38;;;;;;;0.40;0.40;;;15.80;99.90;;;;;;5047775;28;20083;-81
2023/07/11 03:12:05;;;;;;;0.75;0.75;;;15.90;99.90;;;;;;5053266;28;20041;-81
2023/07/11 03:14:30;;;;;;;0.40;0.40;;;15.70;99.90;;;;;;5049308;28;20053;-81
2023/07/11 03:16:56;;;;;;;0.50;0.50;;;15.70;99.90;;;;;;5040722;28;20049;-81
2023/07/11 03:19:22;;;;;;;0.30;0.30;;;15.70;99.90;;;;;;5050853;28;20045;-81
2023/07/11 03:21:48;;;;;;;0.50;0.50;;;15.90;99.90;;;;;;5047792;28;20136;-81
2023/07/11 03:24:14;;;;;;;0.38;0.38;;;15.80;99.90;;;;;;5043526;28;20347;-81
2023/07/11 03:26:39;;;;;;;0.65;0.65;;;15.90;99.90;;;;;;5049990;28;20044;-80
2023/07/11 03:29:05;;;;;;;0.40;0.40;;;15.80;99.90;;;;;;5034399;28;20052;-81
2023/07/11 03:31:31;;;;;;;0.40;0.40;;;15.90;99.90;;;;;;5048369;28;20041;-81
2023/07/11 03:33:56;;;;;;;0.45;0.45;;;15.70;99.90;;;;;;5047366;28;20100;-81
2023/07/11 03:36:22;;;;;;;0.32;0.32;;;15.90;99.90;;;;;;5048326;28;20083;-81
2023/07/11 03:38:48;;;;;;;0.30;0.30;;;15.80;99.90;;;;;;5047755;28;20056;-82
2023/07/11 03:41:13;;;;;;;0.50;0.45;;;15.90;99.90;;;;;;5029007;28;20072;-81
2023/07/11 03:43:39;;;;;;;0.32;0.32;;;15.90;99.90;;;;;;5061317;28;20497;-81
2023/07/11 03:46:05;;;;;;;0.30;0.30;;;15.80;99.90;;;;;;5048531;28;20041;-81
2023/07/11 03:48:30;;;;;;;0.30;0.30;;;15.90;99.90;;;;;;5050312;28;20044;-81
2023/07/11 03:50:56;;;;;;;0.20;0.20;;;15.80;99.90;;;;;;5029681;28;21644;-82
2023/07/11 03:53:23;;;;;;;0.30;0.30;;;15.80;99.90;;;;;;5044612;28;20854;-81
2023/07/11 03:55:48;;;;;;;0.30;0.30;;;15.90;99.90;;;;;;5040922;28;20084;-81
2023/07/11 03:58:14;;;;;;;0.40;0.40;;;15.70;99.90;;;;;;5032157;28;20082;-81
2023/07/11 04:00:40;;;;;;;0.30;0.30;;;15.80;99.90;;;;;;5034169;28;20033;-81
2023/07/11 04:03:05;;;;;;;0.60;0.60;;;16.00;99.90;;;;;;5038594;28;20045;-82
2023/07/11 04:05:31;;;;;;;0.35;0.35;;;15.80;99.90;;;;;;5047000;28;20033;-83
2023/07/11 04:07:57;;;;;;;0.50;0.50;;;15.90;99.90;;;;;;5045279;28;20045;-81
2023/07/11 04:10:22;;;;;;;0.70;0.70;;;16.00;99.90;;;;;;5044929;28;20181;-81
2023/07/11 04:12:50;;;;;;;0.40;0.40;;;16.00;99.90;;;;;;5047804;28;20052;-81
2023/07/11 04:15:16;;;;;;;0.75;0.52;;;16.00;99.90;;;;;;5045404;28;20049;-82
2023/07/11 04:17:42;;;;;;;0.52;0.52;;;16.10;99.90;;;;;;5049385;28;20102;-81
2023/07/11 04:20:08;;;;;;;0.40;0.40;;;16.10;99.90;;;;;;5056386;28;20453;-81
2023/07/11 04:22:34;;;;;;;0.60;0.60;;;16.10;99.90;;;;;;5044222;28;20045;-81
2023/07/11 04:25:00;;;;;;;0.30;0.30;;;16.30;99.90;;;;;;5041593;28;20068;-81
2023/07/11 04:27:25;;;;;;;0.93;0.90;;;16.40;99.90;;;;;;5030675;28;20040;-81
2023/07/11 04:29:51;;;;;;;0.40;0.40;;;16.10;99.90;;;;;;5036144;28;20041;-80
2023/07/11 04:32:17;;;;;;;0.30;0.30;;;16.30;99.90;;;;;;5030406;28;20033;-81
2023/07/11 04:34:43;;;;;;;0.35;0.35;;;16.10;99.90;;;;;;5048717;28;20044;-81
2023/07/11 04:37:09;;;;;;;0.30;0.30;;;16.30;99.90;;;;;;5043168;28;20079;-81
2023/07/11 04:39:35;;;;;;;0.50;0.50;;;16.30;99.90;;;;;;5044014;28;20038;-81
2023/07/11 04:42:00;;;;;;;0.77;0.75;;;16.40;99.90;;;;;;5023078;28;20041;-82
2023/07/11 04:44:26;;;;;;;0.40;0.40;;;16.70;99.90;;;;;;5031396;28;20047;-81
2023/07/11 04:46:52;;;;;;;0.68;0.68;;;16.90;99.90;;;;;;5034980;28;20052;-82
2023/07/11 04:49:17;;;;;;;0.50;0.50;;;16.70;99.90;;;;;;5043322;28;20410;-82
2023/07/11 04:51:43;;;;;;;0.68;0.68;;;16.60;99.90;;;;;;5034302;28;20094;-81
2023/07/11 04:54:09;;;;;;;1.08;1.00;;;16.70;99.90;;;;;;5053565;28;20044;-81
2023/07/11 04:56:39;;;;;;;0.63;0.63;;;16.80;99.90;;;;;;5047415;28;20048;-83
2023/07/11 04:59:04;;;;;;;0.57;0.57;;;16.90;99.90;;;;;;5023578;28;20100;-82
2023/07/11 05:01:30;;;;;;;0.30;0.30;;;16.90;99.90;;;;;;5046568;28;20127;-82
2023/07/11 05:03:56;;;;;;;0.30;0.30;;;16.90;99.90;;;;;;5035160;28;20048;-81
2023/07/11 05:06:22;;;;;;;0.60;0.55;;;17.00;99.90;;;;;;5040141;28;20067;-80
2023/07/11 05:08:47;;;;;;;0.40;0.40;;;17.00;99.90;;;;;;5053688;28;20070;-82
2023/07/11 05:11:16;;;;;;;0.40;0.40;;;17.20;99.90;;;;;;5034142;28;20096;-81
2023/07/11 05:13:44;;;;;;;0.65;0.65;;;17.20;99.90;;;;;;5044531;28;20577;-82
2023/07/11 05:16:16;;;;;;;0.30;0.30;;;17.20;99.90;;;;;;5044188;28;20425;-82
2023/07/11 05:18:42;;;;;;;2.55;1.10;;;17.30;99.90;;;;;;5037758;28;20049;-81
2023/07/11 05:21:09;;;;;;;0.70;0.68;;;17.30;99.90;;;;;;5040613;28;20053;-81
2023/07/11 05:23:36;;;;;;;1.30;0.98;;;17.70;99.90;;;;;;5046143;28;20051;-80
2023/07/11 05:26:03;;;;;;;0.40;0.40;;;17.70;99.90;;;;;;5040449;28;20037;-81
2023/07/11 05:28:32;;;;;;;0.52;0.43;;;17.80;99.90;;;;;;5039261;28;20106;-81
2023/07/11 05:31:00;;;;;;;0.40;0.40;;;17.80;99.90;;;;;;5053439;28;20049;-82
2023/07/11 05:33:27;;;;;;;0.63;0.63;;;18.20;99.90;;;;;;5049423;28;20049;-81
2023/07/11 05:36:18;;;;;;;0.40;0.40;;;18.00;99.90;;;;;;5045637;28;20045;-77
2023/07/11 05:38:43;;;;;;;0.77;0.77;;;18.20;99.90;;;;;;5057450;28;20071;-77
2023/07/11 05:41:09;;;;;;;1.20;1.20;;;18.30;99.90;;;;;;5049743;28;21725;-77
2023/07/11 05:43:35;;;;;;;0.40;0.40;;;18.40;99.90;;;;;;5059393;28;20128;-77
2023/07/11 05:46:00;;;;;;;1.42;1.33;;;18.80;99.90;;;;;;5048255;28;20524;-77
2023/07/11 05:48:26;;;;;;;0.63;0.63;;;18.80;99.90;;;;;;5039709;28;20375;-78
2023/07/11 05:51:06;;;;;;;0.65;0.65;;;19.10;99.90;;;;;;5043731;28;20095;-77
2023/07/11 05:53:32;;;;;;;0.98;0.98;;;18.90;99.90;;;;;;5043588;28;20044;-77
2023/07/11 05:55:58;;;;;;;0.93;0.93;;;19.10;99.90;;;;;;5052177;28;20426;-77
2023/07/11 05:58:28;;;;;;;0.50;0.50;;;19.30;99.90;;;;;;5045341;28;20052;-77
2023/07/11 06:00:54;;;;;;;0.63;0.63;;;19.20;99.90;;;;;;5053358;28;20456;-77
2023/07/11 06:03:22;;;;;;;0.82;0.75;;;19.50;99.90;;;;;;5049152;28;20052;-77
2023/07/11 06:05:48;;;;;;;0.60;0.60;;;19.40;99.90;;;;;;5044044;28;20037;-77
2023/07/11 06:08:14;;;;;;;0.95;0.70;;;19.70;99.90;;;;;;5037785;28;20041;-77
2023/07/11 06:10:41;;;;;;;1.80;1.70;;;19.50;99.90;;;;;;5045322;28;20037;-77
2023/07/11 06:13:07;;;;;;;1.08;0.98;;;19.60;99.90;;;;;;5041345;28;20056;-76
2023/07/11 06:15:33;;;;;;;0.60;0.60;;;19.70;99.90;;;;;;5040236;28;20048;-77
2023/07/11 06:17:59;;;;;;;1.95;0.93;;;19.70;99.90;;;;;;5040852;28;20512;-77
2023/07/11 06:20:24;;;;;;;3.13;1.40;;;19.80;99.90;;;;;;5042408;28;20091;-76
2023/07/11 06:22:50;;;;;;;0.70;0.70;;;19.90;99.90;;;;;;5040590;28;20055;-76
2023/07/11 06:25:17;;;;;;;0.82;0.50;;;20.20;99.90;;;;;;5044437;28;20460;-76
2023/07/11 06:27:43;;;;;;;0.75;0.75;;;20.30;99.90;;;;;;5034483;28;20045;-74
2023/07/11 06:30:09;;;;;;;0.68;0.68;;;20.30;99.90;;;;;;5032275;28;20053;-76
2023/07/11 06:32:34;;;;;;;2.03;1.88;;;20.40;99.90;;;;;;5035215;28;20070;-76
2023/07/11 06:35:00;;;;;;;1.08;1.08;;;20.60;99.90;;;;;;5054327;28;20565;-76
2023/07/11 06:37:26;;;;;;;0.35;0.35;;;20.80;99.90;;;;;;5052983;28;20032;-77
2023/07/11 06:39:51;;;;;;;0.75;0.75;;;20.90;99.90;;;;;;5031153;28;20041;-77
2023/07/11 06:42:17;;;;;;;1.00;0.93;;;21.10;99.90;;;;;;5058813;28;20037;-77
2023/07/11 06:44:43;;;;;;;1.48;0.85;;;21.20;99.90;;;;;;5055231;28;20041;-77
2023/07/11 06:47:09;;;;;;;1.63;1.35;;;21.50;99.90;;;;;;5034241;28;20040;-76
2023/07/11 06:49:35;;;;;;;0.70;0.70;;;21.80;99.90;;;;;;5030198;28;20577;-77
2023/07/11 06:52:02;;;;;;;0.55;0.55;;;22.00;99.90;;;;;;5049386;28;20640;-77
2023/07/11 06:54:28;;;;;;;0.88;0.88;;;22.30;99.90;;;;;;5048279;28;20716;-75
2023/07/11 06:56:55;;;;;;;0.73;0.73;;;22.30;99.90;;;;;;5029819;28;20055;-76
2023/07/11 06:59:21;;;;;;;0.77;0.77;;;22.70;99.90;;;;;;5042242;28;20124;-76
2023/07/11 07:01:48;;;;;;;1.13;1.10;;;22.70;99.90;;;;;;5047258;28;20137;-76
2023/07/11 07:04:14;;;;;;;0.90;0.90;;;23.00;99.90;;;;;;5050883;28;20090;-76
2023/07/11 07:06:41;;;;;;;0.70;0.70;;;23.10;99.90;;;;;;5036515;28;20058;-77
2023/07/11 07:09:06;;;;;;;1.00;0.93;;;23.20;99.90;;;;;;5049433;28;20040;-77
2023/07/11 07:11:35;;;;;;;0.60;0.60;;;23.30;99.90;;;;;;5049060;28;20529;-78
2023/07/11 07:14:01;;;;;;;1.38;0.88;;;23.70;99.90;;;;;;5045520;28;20150;-77
2023/07/11 07:16:28;;;;;;;8.57;2.25;;;23.70;99.90;;;;;;5045419;28;20365;-77
2023/07/11 07:18:54;;;;;;;0.50;0.45;;;24.00;99.90;;;;;;5046149;28;20045;-77
2023/07/11 07:21:20;;;;;;;0.65;0.65;;;24.20;99.90;;;;;;5047776;28;20133;-77
2023/07/11 07:23:46;;;;;;;0.80;0.80;;;24.20;99.90;;;;;;5030150;28;20430;-77
2023/07/11 07:26:11;;;;;;;0.60;0.60;;;24.30;99.90;;;;;;5047145;28;20049;-78
2023/07/11 07:28:37;;;;;;;1.02;1.02;;;24.40;99.90;;;;;;5033777;28;20490;-77
2023/07/11 07:31:07;;;;;;;0.65;0.65;;;24.50;99.90;;;;;;5054227;28;20049;-77
2023/07/11 07:33:33;;;;;;;0.50;0.50;;;24.60;99.90;;;;;;5051997;28;20048;-76
2023/07/11 07:36:02;;;;;;;0.50;0.50;;;24.60;99.90;;;;;;5036151;28;20065;-76
2023/07/11 07:38:29;;;;;;;1.00;1.00;;;24.80;99.90;;;;;;5045775;28;20049;-77
2023/07/11 07:40:56;;;;;;;0.60;0.60;;;24.80;99.90;;;;;;5054065;28;20110;-78
2023/07/11 07:43:22;;;;;;;0.52;0.52;;;25.10;99.90;;;;;;5041489;28;20135;-76
2023/07/11 07:45:49;;;;;;;1.30;0.73;;;25.20;99.90;;;;;;5033650;28;20131;-76
2023/07/11 07:48:15;;;;;;;0.30;0.30;;;25.40;99.90;;;;;;5034430;28;20050;-77
2023/07/11 07:50:41;;;;;;;0.70;0.70;;;25.50;99.90;;;;;;5054554;28;20041;-76
2023/07/11 07:53:06;;;;;;;0.63;0.60;;;25.70;99.90;;;;;;5034899;28;20052;-78
2023/07/11 07:55:36;;;;;;;0.60;0.60;;;26.00;99.90;;;;;;5031161;28;20045;-77
2023/07/11 07:58:02;;;;;;;0.50;0.50;;;25.90;99.90;;;;;;5042459;28;20060;-78
2023/07/11 08:00:27;;;;;;;1.20;1.20;;;26.20;99.90;;;;;;5042332;28;20504;-77
2023/07/11 08:02:53;;;;;;;0.95;0.95;;;26.20;99.90;;;;;;5045475;28;20049;-78
2023/07/11 08:05:20;;;;;;;0.65;0.65;;;26.30;99.90;;;;;;5060542;28;20036;-79
2023/07/11 08:07:46;;;;;;;1.40;1.30;;;26.30;99.90;;;;;;5049454;28;20071;-78
2023/07/11 08:10:12;;;;;;;0.80;0.80;;;26.30;99.90;;;;;;5034197;28;20041;-79
2023/07/11 08:12:38;;;;;;;1.00;0.93;;;26.50;99.90;;;;;;5039883;28;20037;-77
2023/07/11 08:15:04;;;;;;;0.77;0.77;;;26.70;99.90;;;;;;5040626;28;20154;-78
2023/07/11 08:17:30;;;;;;;0.80;0.80;;;26.90;99.90;;;;;;5050249;28;20106;-78
2023/07/11 08:19:56;;;;;;;0.60;0.60;;;27.10;99.90;;;;;;5044877;28;20033;-78
2023/07/11 08:22:22;;;;;;;0.90;0.90;;;27.40;99.90;;;;;;5055191;28;20257;-77
2023/07/11 08:24:47;;;;;;;0.68;0.68;;;27.40;99.90;;;;;;5031295;28;20045;-78
2023/07/11 08:27:13;;;;;;;0.98;0.90;;;27.50;99.90;;;;;;5033539;28;20037;-78
2023/07/11 08:29:43;;;;;;;0.80;0.80;;;27.70;99.90;;;;;;5059648;28;20486;-77
2023/07/11 08:32:09;;;;;;;1.63;1.25;;;27.90;99.90;;;;;;5057721;28;20044;-78
2023/07/11 08:34:34;;;;;;;0.55;0.55;;;28.10;99.90;;;;;;5052698;28;20633;-79
2023/07/11 08:37:00;;;;;;;0.82;0.82;;;28.10;99.90;;;;;;5053901;28;20459;-80
2023/07/11 08:39:25;;;;;;;1.00;0.95;;;28.40;99.90;;;;;;5036509;28;20086;-78
2023/07/11 08:41:53;;;;;;;1.08;0.80;;;28.40;99.90;;;;;;5055710;28;20044;-78
2023/07/11 08:44:32;;;;;;;0.50;0.50;;;28.40;99.90;;;;;;5052524;28;20040;-78
2023/07/11 08:47:25;;;;;;;1.60;1.50;;;28.50;99.90;;;;;;5045454;28;20466;-78
2023/07/11 08:50:04;;;;;;;1.55;1.02;;;28.70;99.90;;;;;;5043435;28;20529;-79
2023/07/11 08:52:31;;;;;;;0.82;0.82;;;28.80;99.90;;;;;;5048156;28;20051;-78
2023/07/11 08:55:10;;;;;;;0.65;0.65;;;29.10;99.90;;;;;;5035422;28;20715;-78
2023/07/11 08:57:42;;;;;;;0.60;0.60;;;29.10;99.90;;;;;;5042339;28;20587;-79
2023/07/11 09:00:16;;;;;;;0.50;0.50;;;29.00;99.90;;;;;;5035716;28;20048;-79
2023/07/11 09:03:11;;;;;;;0.80;0.80;;;29.00;99.90;;;;;;5058187;28;20044;-78
2023/07/11 09:05:50;;;;;;;0.60;0.60;;;29.00;99.90;;;;;;5028725;28;20055;-79
2023/07/11 09:08:18;;;;;;;0.50;0.50;;;29.30;99.90;;;;;;5045609;28;20056;-79
2023/07/11 09:11:12;;;;;;;0.70;0.70;;;29.40;99.90;;;;;;5046620;28;20098;-79
2023/07/11 09:14:36;;;;;;;0.65;0.65;;;29.60;99.90;;;;;;5045566;28;20040;-78
2023/07/11 09:17:14;;;;;;;0.50;0.50;;;29.90;99.90;;;;;;4948392;28;20093;-78
2023/07/11 09:20:21;;;;;;;0.68;0.68;;;29.60;99.90;;;;;;5029151;28;20064;-79
2023/07/11 09:23:09;;;;;;;0.50;0.50;;;29.60;99.90;;;;;;5054613;28;20047;-79
2023/07/11 09:25:38;;;;;;;2.30;0.80;;;29.70;99.90;;;;;;5021117;28;20048;-78
2023/07/11 09:28:13;;;;;;;1.77;1.10;;;29.70;99.90;;;;;;5036036;28;20052;-78
2023/07/11 09:30:54;;;;;;;0.52;0.52;;;29.70;99.90;;;;;;5045139;28;20033;-79
2023/07/11 09:33:23;;;;;;;0.85;0.85;;;29.80;99.90;;;;;;5044394;28;20044;-79
2023/07/11 09:35:50;;;;;;;0.52;0.52;;;29.90;99.90;;;;;;5050442;28;20048;-80
2023/07/11 09:38:34;;;;;;;0.50;0.50;;;30.00;99.90;;;;;;5042902;28;20072;-80
2023/07/11 09:41:14;;;;;;;0.93;0.90;;;30.10;99.90;;;;;;5031515;28;20061;-79
2023/07/11 09:43:40;;;;;;;0.70;0.70;;;30.40;99.90;;;;;;5047942;28;20053;-79
2023/07/11 09:46:15;;;;;;;1.10;1.00;;;30.50;99.90;;;;;;5038047;28;20115;-80
2023/07/11 09:48:44;;;;;;;0.43;0.43;;;30.70;99.90;;;;;;5043624;28;20048;-79
2023/07/11 09:51:22;;;;;;;0.43;0.43;;;30.90;99.90;;;;;;5057282;28;20127;-80
2023/07/11 09:53:48;;;;;;;0.50;0.50;;;30.90;99.90;;;;;;5047326;28;20183;-77
2023/07/11 09:56:17;;;;;;;0.65;0.65;;;30.80;99.90;;;;;;5052806;28;20147;-76
2023/07/11 09:59:02;;;;;;;0.82;0.82;;;30.80;99.90;;;;;;5052249;28;20068;-77
2023/07/11 10:01:32;;;;;;;0.40;0.40;;;30.80;99.90;;;;;;5048613;28;20166;-77
2023/07/11 10:04:00;;;;;;;0.90;0.90;;;31.10;99.90;;;;;;5056036;28;20045;-77
2023/07/11 10:06:44;;;;;;;0.85;0.70;;;31.10;99.90;;;;;;5046059;28;20520;-76
2023/07/11 10:09:15;;;;;;;0.60;0.60;;;31.30;99.90;;;;;;5051904;28;20486;-77
2023/07/11 10:11:40;;;;;;;1.50;1.42;;;31.40;99.90;;;;;;5049104;28;20552;-76
2023/07/11 10:14:19;;;;;;;1.15;1.10;;;31.40;99.90;;;;;;5054155;28;20132;-77
2023/07/11 10:16:46;;;;;;;0.43;0.43;;;31.80;99.90;;;;;;5041266;28;20124;-76
2023/07/11 10:19:12;;;;;;;;;;;31.90;99.90;;;;;;5053716;28;20056;-76
2023/07/11 10:21:38;;;;;;;0.60;0.60;;;32.10;99.90;;;;;;5055359;28;19920;-76
2023/07/11 10:24:12;;;;;;;0.65;0.65;;;32.30;99.90;;;;;;5048842;28;20134;-76
2023/07/11 10:26:38;;;;;;;0.50;0.50;;;32.20;99.90;;;;;;5045817;28;20037;-77
2023/07/11 10:29:11;;;;;;;1.17;1.13;;;32.20;99.90;;;;;;5044122;28;20057;-77
2023/07/11 10:31:44;;;;;;;0.50;0.50;;;32.20;99.90;;;;;;5049933;28;20051;-78
2023/07/11 10:34:16;;;;;;;2.17;2.08;;;32.30;99.90;;;;;;5059708;28;20110;-78
2023/07/11 10:36:46;;;;;;;4.15;2.33;;;32.40;99.60;;;;;;5048580;28;20048;-77
2023/07/11 10:39:40;;;;;;;0.55;0.55;;;32.50;99.30;;;;;;5048596;28;20044;-77
2023/07/11 10:42:34;;;;;;;0.70;0.70;;;32.50;98.60;;;;;;5052609;28;20155;-77
2023/07/11 10:45:23;;;;;;;0.50;0.50;;;32.70;99.70;;;;;;5055552;28;20086;-77
2023/07/11 10:48:01;;;;;;;0.50;0.50;;;32.80;98.00;;;;;;5057711;28;20086;-77
2023/07/11 10:50:33;;;;;;;0.40;0.40;;;32.80;98.90;;;;;;5054409;28;20113;-77
2023/07/11 10:53:04;;;;;;;0.60;0.60;;;32.90;97.30;;;;;;5045690;28;20048;-77
2023/07/11 10:55:41;;;;;;;0.93;0.93;;;33.00;98.90;;;;;;5045858;28;20044;-77
2023/07/11 10:58:09;;;;;;;0.60;0.60;;;33.10;98.70;;;;;;5050205;28;20545;-77
2023/07/11 11:01:08;;;;;;;0.77;0.77;;;33.00;98.10;;;;;;5045394;28;20068;-77
2023/07/11 11:03:38;;;;;;;0.50;0.50;;;33.30;98.10;;;;;;5043467;28;20099;-78
2023/07/11 11:06:42;;;;;;;1.20;1.10;;;33.10;98.20;;;;;;5051840;28;20048;-78
2023/07/11 11:09:18;;;;;;;1.05;1.05;;;33.20;96.70;;;;;;5042247;28;20057;-75
2023/07/11 11:12:14;;;;;;;0.68;0.68;;;33.20;98.00;;;;;;5053002;28;20191;-77
2023/07/11 11:14:49;;;;;;;0.40;0.40;;;33.30;97.60;;;;;;5044136;28;20485;-76
2023/07/11 11:17:33;;;;;;;0.77;0.77;;;33.40;96.00;;;;;;5053851;28;20391;-77
2023/07/11 11:20:21;;;;;;;0.40;0.40;;;33.40;97.80;;;;;;5044145;28;20497;-76
2023/07/11 11:23:20;;;;;;;0.47;0.47;;;33.40;96.10;;;;;;5036396;28;20055;-77
2023/07/11 11:26:03;;;;;;;1.40;1.35;;;33.40;96.80;;;;;;5045086;28;20045;-78
2023/07/11 11:28:39;;;;;;;0.55;0.55;;;33.40;97.40;;;;;;5043288;28;20083;-77
2023/07/11 11:31:23;;;;;;;1.27;1.20;;;33.20;96.90;;;;;;5046716;28;20630;-77
2023/07/11 11:34:08;;;;;;;0.60;0.60;;;33.00;96.90;;;;;;5026332;28;20057;-77
2023/07/11 11:36:57;;;;;;;1.42;1.35;;;32.80;97.30;;;;;;5057516;28;20692;-77
2023/07/11 11:39:36;;;;;;;0.45;0.45;;;32.80;97.40;;;;;;5039612;28;20526;-76
2023/07/11 11:42:08;;;;;;;0.80;0.80;;;32.90;98.20;;;;;;5048378;28;20053;-76
2023/07/11 11:44:48;;;;;;;1.55;1.45;;;33.20;97.50;;;;;;5046812;28;20041;-75
2023/07/11 11:47:14;;;;;;;0.80;0.80;;;33.40;97.20;;;;;;5043106;28;20131;-76
2023/07/11 11:49:41;;;;;;;0.55;0.55;;;33.70;97.10;;;;;;5048138;28;20124;-76
2023/07/11 11:52:08;;;;;;;1.08;1.08;;;33.50;97.00;;;;;;5047254;28;20045;-75
2023/07/11 11:54:41;;;;;;;0.85;0.85;;;33.50;97.10;;;;;;5045950;28;20049;-76
2023/07/11 11:57:25;;;;;;;0.80;0.80;;;33.40;96.70;;;;;;5029474;28;20146;-76
2023/07/11 11:59:51;;;;;;;0.45;0.45;;;33.60;97.00;;;;;;5050540;28;20041;-76
2023/07/11 12:02:24;;;;;;;0.50;0.50;;;33.60;96.40;;;;;;5048931;28;20032;-75
2023/07/11 12:05:18;;;;;;;0.80;0.80;;;33.40;96.60;;;;;;5040977;28;20405;-75
2023/07/11 12:07:44;;;;;;;0.60;0.60;;;33.20;96.60;;;;;;5038959;28;20061;-76
2023/07/11 12:10:18;;;;;;;0.40;0.40;;;33.30;96.80;;;;;;5048344;28;20069;-76
2023/07/11 12:12:45;;;;;;;0.70;0.70;;;33.10;96.60;;;;;;5049964;28;20573;-76
2023/07/11 12:15:10;;;;;;;4.18;1.25;;;33.30;97.00;;;;;;5047687;28;20053;-75
2023/07/11 12:17:38;;;;;;;0.50;0.50;;;33.20;95.50;;;;;;5051613;28;20397;-76
2023/07/11 12:20:07;;;;;;;0.90;0.90;;;32.90;96.30;;;;;;5047502;28;20094;-77
2023/07/11 12:22:52;;;;;;;0.50;0.50;;;32.90;96.60;;;;;;5041361;28;20052;-76
2023/07/11 12:25:28;;;;;;;1.08;1.05;;;33.00;95.80;;;;;;5042162;28;20094;-76
2023/07/11 12:27:53;;;;;;;0.70;0.70;;;33.00;96.10;;;;;;5049674;28;20135;-75
2023/07/11 12:30:40;;;;;;;0.80;0.80;;;33.00;96.50;;;;;;5048678;28;20048;-76
2023/07/11 12:33:32;;;;;;;4.45;0.95;;;33.00;96.00;;;;;;5049599;28;20049;-75
2023/07/11 12:36:07;;;;;;;0.82;0.82;;;32.70;96.30;;;;;;5043541;28;20056;-76
2023/07/11 12:38:44;;;;;;;0.80;0.65;;;32.80;96.10;;;;;;5046883;28;20048;-76
2023/07/11 12:41:23;;;;;;;1.00;1.00;;;32.70;96.10;;;;;;5042282;28;20098;-76
2023/07/11 12:43:48;;;;;;;2.08;1.48;;;32.80;96.40;;;;;;5046428;28;20126;-75
2023/07/11 12:46:26;;;;;;;0.60;0.60;;;32.90;96.10;;;;;;5052535;28;20504;-76
2023/07/11 12:48:53;;;;;;;0.50;0.50;;;32.80;96.50;;;;;;5056309;28;20044;-76
2023/07/11 12:51:39;;;;;;;0.57;0.57;;;32.90;96.40;;;;;;5046436;28;20041;-76
2023/07/11 12:54:15;;;;;;;1.15;1.15;;;33.00;96.20;;;;;;5046996;28;20052;-76
2023/07/11 12:56:46;;;;;;;1.65;0.95;;;33.30;96.30;;;;;;5046313;28;20049;-76
2023/07/11 12:59:27;;;;;;;0.63;0.63;;;33.60;96.00;;;;;;5040986;28;20053;-76
2023/07/11 13:01:56;;;;;;;1.02;0.82;;;33.40;95.20;;;;;;5040418;28;20049;-76